Time,TemperatureF,DewpointF,PressureIn,WindDirection,WindDirectionDegrees,WindSpeedMPH,WindSpeedGustMPH,Humidity,HourlyPrecipIn,Conditions,Clouds,dailyrainin,SoftwareType,DateUTC
2013-03-04 00:21:00,34.0,29.0,29.87,SW,220,4.0,6.0,82,0.00,,,-99.99,,2013-03-04 08:21:00,
2013-03-04 00:31:00,34.0,29.0,29.87,SW,220,4.0,6.0,82,0.00,,,-99.99,,2013-03-04 08:31:00,
2013-03-04 00:41:00,34.0,29.0,29.87,SW,220,4.0,6.0,82,0.00,,,-99.99,,2013-03-04 08:41:00,
2013-03-04 01:21:00,33.0,29.0,29.89,WSW,250,2.0,8.0,86,0.00,,,-99.99,,2013-03-04 09:21:00,
2013-03-04 01:31:00,33.0,29.0,29.89,WSW,250,2.0,8.0,86,0.00,,,-99.99,,2013-03-04 09:31:00,
2013-03-04 01:42:00,33.0,29.0,29.89,WSW,250,2.0,8.0,86,0.00,,,-99.99,,2013-03-04 09:42:00,
2013-03-04 02:21:00,32.0,28.0,29.88,East,80,1.0,5.0,84,0.00,,,-99.99,,2013-03-04 10:21:00,
2013-03-04 02:31:00,32.0,28.0,29.88,East,80,1.0,5.0,84,0.00,,,-99.99,,2013-03-04 10:31:00,
2013-03-04 02:42:00,32.0,28.0,29.88,East,80,1.0,5.0,84,0.00,,,-99.99,,2013-03-04 10:42:00,
2013-03-04 03:21:00,33.0,30.0,29.89,North,0,0.0,4.0,87,0.00,,,-99.99,,2013-03-04 11:21:00,
2013-03-04 03:31:00,33.0,30.0,29.89,North,0,0.0,4.0,87,0.00,,,-99.99,,2013-03-04 11:31:00,
2013-03-04 03:41:00,33.0,30.0,29.89,North,0,0.0,4.0,87,0.00,,,-99.99,,2013-03-04 11:41:00,
2013-03-04 04:22:00,32.0,28.0,29.89,West,270,1.0,12.0,85,0.00,,,-99.99,,2013-03-04 12:22:00,
2013-03-04 04:32:00,32.0,28.0,29.89,West,270,1.0,12.0,85,0.00,,,-99.99,,2013-03-04 12:32:00,
2013-03-04 04:42:00,32.0,28.0,29.89,West,270,1.0,12.0,85,0.00,,,-99.99,,2013-03-04 12:42:00,
2013-03-04 05:21:00,31.0,28.0,29.91,SW,220,1.0,5.0,90,0.00,,,-99.99,,2013-03-04 13:21:00,
2013-03-04 05:32:00,31.0,28.0,29.91,SW,220,1.0,5.0,90,0.00,,,-99.99,,2013-03-04 13:32:00,
2013-03-04 05:41:00,31.0,28.0,29.91,SW,220,1.0,5.0,90,0.00,,,-99.99,,2013-03-04 13:41:00,
2013-03-04 06:22:00,30.0,28.0,29.93,SW,230,3.0,5.0,92,0.00,,,-99.99,,2013-03-04 14:22:00,
2013-03-04 06:32:00,30.0,28.0,29.93,SW,230,3.0,5.0,92,0.00,,,-99.99,,2013-03-04 14:32:00,
2013-03-04 06:41:00,30.0,28.0,29.93,SW,230,3.0,5.0,92,0.00,,,-99.99,,2013-03-04 14:41:00,
2013-03-04 07:21:00,31.0,28.0,29.98,North,-999,0.0,0.0,87,0.00,,,-99.99,,2013-03-04 15:21:00,
2013-03-04 07:32:00,31.0,28.0,29.98,North,-999,0.0,0.0,87,0.00,,,-99.99,,2013-03-04 15:32:00,
2013-03-04 07:42:00,31.0,28.0,29.98,North,-999,0.0,0.0,87,0.00,,,-99.99,,2013-03-04 15:42:00,
2013-03-04 08:21:00,36.0,29.0,30.00,WSW,240,2.0,3.0,75,0.00,,,-99.99,,2013-03-04 16:21:00,
2013-03-04 08:31:00,36.0,29.0,30.00,WSW,240,2.0,3.0,75,0.00,,,-99.99,,2013-03-04 16:31:00,
2013-03-04 08:42:00,36.0,29.0,30.00,WSW,240,2.0,3.0,75,0.00,,,-99.99,,2013-03-04 16:42:00,
2013-03-04 09:22:00,40.0,31.0,30.02,NE,40,7.0,8.0,70,0.00,,,-99.99,,2013-03-04 17:22:00,
2013-03-04 09:32:00,40.0,31.0,30.02,NE,40,7.0,8.0,70,0.00,,,-99.99,,2013-03-04 17:32:00,
2013-03-04 09:42:00,40.0,31.0,30.02,NE,40,7.0,8.0,70,0.00,,,-99.99,,2013-03-04 17:42:00,
2013-03-04 10:21:00,44.0,31.0,30.02,NNE,20,2.0,8.0,60,0.00,,,-99.99,,2013-03-04 18:21:00,
2013-03-04 10:32:00,44.0,31.0,30.02,NNE,20,2.0,8.0,60,0.00,,,-99.99,,2013-03-04 18:32:00,
2013-03-04 10:42:00,44.0,31.0,30.02,NNE,20,2.0,8.0,60,0.00,,,-99.99,,2013-03-04 18:42:00,
2013-03-04 11:21:00,44.0,31.0,30.04,East,80,3.0,7.0,59,0.00,,,-99.99,,2013-03-04 19:21:00,
2013-03-04 11:32:00,44.0,31.0,30.04,East,80,3.0,7.0,59,0.00,,,-99.99,,2013-03-04 19:32:00,
2013-03-04 11:42:00,44.0,31.0,30.04,East,80,3.0,7.0,59,0.00,,,-99.99,,2013-03-04 19:42:00,
2013-03-04 12:21:00,49.0,24.0,30.02,ESE,120,1.0,6.0,37,0.00,,,-99.99,,2013-03-04 20:21:00,
2013-03-04 12:32:00,49.0,24.0,30.02,ESE,120,1.0,6.0,37,0.00,,,-99.99,,2013-03-04 20:32:00,
2013-03-04 12:42:00,49.0,24.0,30.02,ESE,120,1.0,6.0,37,0.00,,,-99.99,,2013-03-04 20:42:00,
2013-03-04 13:21:00,49.0,23.0,30.02,NNE,30,5.0,7.0,35,0.00,,,-99.99,,2013-03-04 21:21:00,
2013-03-04 13:32:00,49.0,23.0,30.02,NNE,30,5.0,7.0,35,0.00,,,-99.99,,2013-03-04 21:32:00,
2013-03-04 13:42:00,49.0,23.0,30.02,NNE,30,5.0,7.0,35,0.00,,,-99.99,,2013-03-04 21:42:00,
2013-03-04 14:22:00,48.0,24.0,30.02,NNE,30,1.0,11.0,39,0.00,,,-99.99,,2013-03-04 22:22:00,
2013-03-04 14:32:00,48.0,24.0,30.02,NNE,30,1.0,11.0,39,0.00,,,-99.99,,2013-03-04 22:32:00,
2013-03-04 14:42:00,48.0,24.0,30.02,NNE,30,1.0,11.0,39,0.00,,,-99.99,,2013-03-04 22:42:00,
2013-03-04 15:21:00,48.0,25.0,30.03,NE,40,2.0,6.0,41,0.00,,,-99.99,,2013-03-04 23:21:00,
2013-03-04 15:32:00,48.0,25.0,30.03,NE,40,2.0,6.0,41,0.00,,,-99.99,,2013-03-04 23:32:00,
2013-03-04 15:42:00,48.0,25.0,30.03,NE,40,2.0,6.0,41,0.00,,,-99.99,,2013-03-04 23:42:00,
2013-03-04 16:21:00,47.0,26.0,30.04,NNE,20,4.0,6.0,43,0.00,,,-99.99,,2013-03-05 00:21:00,
2013-03-04 16:32:00,47.0,26.0,30.04,NNE,20,4.0,6.0,43,0.00,,,-99.99,,2013-03-05 00:32:00,
2013-03-04 16:41:00,47.0,26.0,30.04,NNE,20,4.0,6.0,43,0.00,,,-99.99,,2013-03-05 00:41:00,
2013-03-04 17:21:00,46.0,27.0,30.05,East,80,1.0,6.0,47,0.00,,,-99.99,,2013-03-05 01:21:00,
2013-03-04 17:32:00,46.0,27.0,30.05,East,80,1.0,6.0,47,0.00,,,-99.99,,2013-03-05 01:32:00,
2013-03-04 17:41:00,46.0,27.0,30.05,East,80,1.0,6.0,47,0.00,,,-99.99,,2013-03-05 01:41:00,
2013-03-04 18:21:00,42.0,27.0,30.07,North,-999,0.0,0.0,56,0.00,,,-99.99,,2013-03-05 02:21:00,
2013-03-04 18:32:00,42.0,27.0,30.07,North,-999,0.0,0.0,56,0.00,,,-99.99,,2013-03-05 02:32:00,
2013-03-04 18:41:00,42.0,27.0,30.07,North,-999,0.0,0.0,56,0.00,,,-99.99,,2013-03-05 02:41:00,
2013-03-04 19:22:00,38.0,27.0,30.09,North,-999,0.0,0.0,64,0.00,,,-99.99,,2013-03-05 03:22:00,
2013-03-04 19:32:00,38.0,27.0,30.09,North,-999,0.0,0.0,64,0.00,,,-99.99,,2013-03-05 03:32:00,
2013-03-04 19:41:00,38.0,27.0,30.09,North,-999,0.0,0.0,64,0.00,,,-99.99,,2013-03-05 03:41:00,
2013-03-04 20:21:00,36.0,28.0,30.11,North,-999,0.0,0.0,73,0.00,,,-99.99,,2013-03-05 04:21:00,
2013-03-04 20:32:00,36.0,28.0,30.11,North,-999,0.0,0.0,73,0.00,,,-99.99,,2013-03-05 04:32:00,
2013-03-04 20:42:00,36.0,28.0,30.11,North,-999,0.0,0.0,73,0.00,,,-99.99,,2013-03-05 04:42:00,
2013-03-04 21:22:00,36.0,18.0,30.12,North,-999,0.0,0.0,47,0.00,,,-99.99,,2013-03-05 05:22:00,
2013-03-04 21:31:00,36.0,18.0,30.12,North,-999,0.0,0.0,47,0.00,,,-99.99,,2013-03-05 05:31:00,
2013-03-04 22:22:00,37.0,12.0,30.13,North,-999,0.0,0.0,35,0.00,,,-99.99,,2013-03-05 06:22:00,
2013-03-04 22:31:00,37.0,12.0,30.13,North,-999,0.0,0.0,35,0.00,,,-99.99,,2013-03-05 06:31:00,
2013-03-04 23:21:00,38.0,4.0,30.11,North,0,0.0,1.0,24,0.00,,,-99.99,,2013-03-05 07:21:00,
2013-03-04 23:31:00,38.0,4.0,30.11,North,0,0.0,1.0,24,0.00,,,-99.99,,2013-03-05 07:31:00,